createdAt,value
2022-12-15T00:01:20.171Z,16.00
2022-12-15T00:03:10.816Z,16.27
2022-12-15T00:05:01.341Z,14.70
2022-12-15T00:06:52.012Z,15.50
2022-12-15T00:08:42.446Z,15.02
2022-12-15T00:10:33.065Z,15.25
2022-12-15T00:12:23.679Z,16.30
2022-12-15T00:14:14.421Z,15.43
2022-12-15T00:16:06.245Z,15.02
2022-12-15T00:17:56.726Z,14.73
2022-12-15T00:19:47.535Z,12.63
2022-12-15T00:21:38.307Z,14.10
2022-12-15T00:23:31.362Z,13.38
2022-12-15T00:25:21.931Z,13.38
2022-12-15T00:27:12.824Z,13.48
2022-12-15T00:29:03.508Z,13.57
2022-12-15T00:30:58.892Z,12.07
2022-12-15T00:32:52.735Z,13.40
2022-12-15T00:34:43.047Z,13.68
2022-12-15T00:36:33.729Z,13.93
2022-12-15T00:38:32.543Z,13.13
2022-12-15T00:40:05.705Z,13.60
2022-12-15T00:41:37.745Z,12.50
2022-12-15T00:43:15.984Z,14.05
2022-12-15T00:44:48.003Z,13.27
2022-12-15T00:46:38.599Z,14.25
2022-12-15T00:48:10.566Z,13.57
2022-12-15T00:50:01.265Z,13.63
2022-12-15T00:51:51.842Z,13.65
2022-12-15T00:53:43.437Z,13.35
2022-12-15T00:55:33.970Z,13.55
2022-12-15T00:57:24.653Z,14.45
2022-12-15T00:59:15.194Z,13.38
2022-12-15T01:01:05.660Z,12.98
2022-12-15T01:02:56.452Z,12.57
2022-12-15T01:04:47.514Z,12.40
2022-12-15T01:06:38.681Z,13.60
2022-12-15T01:08:29.458Z,13.30
2022-12-15T01:10:20.223Z,11.80
2022-12-15T01:12:11.818Z,12.82
2022-12-15T01:14:02.529Z,13.52
2022-12-15T01:15:55.563Z,13.07
2022-12-15T01:17:45.943Z,12.90
2022-12-15T01:19:36.628Z,13.38
2022-12-15T01:21:09.657Z,13.45
2022-12-15T01:22:41.864Z,14.30
2022-12-15T01:24:13.877Z,13.40
2022-12-15T01:25:45.835Z,13.75
2022-12-15T01:27:24.760Z,13.95
2022-12-15T01:28:56.790Z,13.82
2022-12-15T01:30:31.530Z,14.00
2022-12-15T01:32:03.588Z,14.50
2022-12-15T01:33:35.583Z,13.13
2022-12-15T01:35:08.575Z,14.85
2022-12-15T01:36:40.583Z,13.63
2022-12-15T01:38:12.588Z,12.73
2022-12-15T01:40:05.153Z,13.63
2022-12-15T01:41:37.086Z,14.82
2022-12-15T01:43:30.824Z,14.60
2022-12-15T01:45:24.896Z,13.88
2022-12-15T01:46:57.150Z,13.65
2022-12-15T01:48:34.196Z,14.02
2022-12-15T01:50:13.452Z,13.38
2022-12-15T01:51:49.267Z,14.00
2022-12-15T01:53:21.252Z,14.90
2022-12-15T01:54:56.894Z,14.10
2022-12-15T01:56:33.997Z,14.95
2022-12-15T01:58:09.783Z,14.30
2022-12-15T01:59:46.721Z,13.25
2022-12-15T02:01:18.822Z,15.30
2022-12-15T02:02:51.663Z,13.32
2022-12-15T02:04:24.100Z,14.00
2022-12-15T02:05:57.511Z,14.40
2022-12-15T02:07:29.499Z,14.18
2022-12-15T02:09:01.849Z,14.15
2022-12-15T02:11:08.767Z,14.40
2022-12-15T02:13:08.480Z,16.38
2022-12-15T02:14:47.903Z,14.13
2022-12-15T02:16:42.713Z,15.50
2022-12-15T02:18:17.796Z,14.63
2022-12-15T02:20:01.678Z,16.33
2022-12-15T02:21:41.101Z,16.02
2022-12-15T02:23:16.194Z,14.25
2022-12-15T02:25:02.915Z,17.10
2022-12-15T02:26:53.643Z,15.77
2022-12-15T02:28:53.610Z,16.13
2022-12-15T02:31:41.122Z,15.48
2022-12-15T02:33:24.953Z,16.02
2022-12-15T02:35:04.225Z,15.23
2022-12-15T02:36:39.303Z,15.50
2022-12-15T02:38:11.435Z,14.57
2022-12-15T02:39:44.061Z,15.95
2022-12-15T02:41:38.580Z,15.77
2022-12-15T02:44:55.206Z,15.68
2022-12-15T02:48:52.083Z,17.38
2022-12-15T02:50:51.663Z,16.55
2022-12-15T02:52:26.290Z,14.60
2022-12-15T02:54:29.037Z,15.65
2022-12-15T02:56:11.254Z,14.88
2022-12-15T02:57:58.992Z,14.23
2022-12-15T02:59:47.814Z,14.55
2022-12-15T03:01:31.523Z,14.77
2022-12-15T03:03:03.797Z,14.95
2022-12-15T03:04:37.520Z,14.02
2022-12-15T03:07:43.089Z,15.43
2022-12-15T03:09:15.051Z,15.32
2022-12-15T03:10:47.661Z,15.70
2022-12-15T03:12:19.657Z,15.25
2022-12-15T03:13:52.139Z,12.30
2022-12-15T03:15:24.110Z,10.43
2022-12-15T03:16:56.417Z,9.75
2022-12-15T03:18:28.560Z,9.90
2022-12-15T03:20:00.623Z,11.50
2022-12-15T03:21:32.596Z,10.70
2022-12-15T03:23:04.560Z,11.90
2022-12-15T03:24:36.528Z,13.02
2022-12-15T03:26:12.384Z,10.48
2022-12-15T03:27:46.309Z,9.55
2022-12-15T03:29:18.523Z,9.35
2022-12-15T03:30:50.887Z,8.07
2022-12-15T03:32:22.981Z,8.45
2022-12-15T03:33:55.828Z,7.95
2022-12-15T03:35:27.786Z,8.90
2022-12-15T03:36:59.748Z,9.18
2022-12-15T03:38:31.663Z,8.63
2022-12-15T03:40:03.795Z,9.05
2022-12-15T03:41:35.762Z,9.73
2022-12-15T03:43:07.728Z,9.75
2022-12-15T03:44:39.717Z,9.35
2022-12-15T03:47:51.197Z,9.32
2022-12-15T03:49:23.154Z,8.85
2022-12-15T03:50:55.574Z,9.13
2022-12-15T03:52:27.567Z,9.20
2022-12-15T03:53:59.560Z,8.77
2022-12-15T03:55:31.716Z,8.98
2022-12-15T03:57:03.801Z,8.40
2022-12-15T03:58:35.822Z,9.15
2022-12-15T04:00:08.682Z,10.45
2022-12-15T04:01:46.417Z,8.95
2022-12-15T04:03:18.630Z,8.20
2022-12-15T04:04:50.640Z,9.30
2022-12-15T04:06:22.996Z,9.80
2022-12-15T04:07:56.295Z,9.45
2022-12-15T04:09:28.231Z,8.77
2022-12-15T04:11:00.202Z,8.57
2022-12-15T04:12:32.171Z,8.90
2022-12-15T04:14:07.278Z,8.90
2022-12-15T04:17:12.516Z,11.20
2022-12-15T04:18:44.707Z,10.10
2022-12-15T04:20:16.711Z,9.45
2022-12-15T04:21:49.744Z,9.20
2022-12-15T04:23:22.577Z,11.20
2022-12-15T04:25:12.880Z,10.55
2022-12-15T04:27:03.429Z,10.52
2022-12-15T04:28:54.038Z,10.57
2022-12-15T04:30:44.842Z,13.20
2022-12-15T04:32:35.746Z,13.15
2022-12-15T04:34:31.113Z,13.98
2022-12-15T04:36:21.947Z,12.18
2022-12-15T04:38:12.420Z,12.55
2022-12-15T04:40:07.020Z,12.70
2022-12-15T04:43:48.227Z,13.73
2022-12-15T04:45:41.119Z,13.25
2022-12-15T04:47:31.757Z,13.05
2022-12-15T04:49:22.568Z,13.95
2022-12-15T04:51:13.184Z,16.85
2022-12-15T04:53:03.897Z,16.80
2022-12-15T04:54:54.554Z,19.20
2022-12-15T04:56:45.093Z,19.40
2022-12-15T04:58:35.620Z,16.38
2022-12-15T05:00:27.614Z,14.40
2022-12-15T05:02:18.296Z,14.35
2022-12-15T05:04:08.891Z,14.77
2022-12-15T05:05:59.317Z,13.60
2022-12-15T05:07:50.055Z,14.55
2022-12-15T05:09:40.764Z,13.10
2022-12-15T05:11:31.395Z,13.20
2022-12-15T05:13:25.747Z,15.88
2022-12-15T05:15:16.527Z,14.38
2022-12-15T05:17:07.587Z,14.98
2022-12-15T05:18:58.235Z,15.27
2022-12-15T05:20:50.173Z,15.35
2022-12-15T05:22:40.870Z,15.18
2022-12-15T05:24:31.606Z,18.55
2022-12-15T05:26:22.313Z,18.50
2022-12-15T05:28:13.058Z,19.80
2022-12-15T05:30:03.704Z,16.45
2022-12-15T05:31:55.407Z,15.32
2022-12-15T05:33:27.628Z,15.63
2022-12-15T05:34:59.765Z,18.08
2022-12-15T05:36:31.825Z,15.70
2022-12-15T05:38:05.802Z,13.88
2022-12-15T05:39:37.844Z,12.82
2022-12-15T05:41:09.928Z,13.93
2022-12-15T05:42:42.040Z,15.77
2022-12-15T05:44:14.425Z,15.02
2022-12-15T05:45:46.471Z,17.40
2022-12-15T05:47:18.513Z,16.63
2022-12-15T05:48:50.808Z,16.77
2022-12-15T05:50:23.727Z,15.85
2022-12-15T05:51:57.516Z,16.88
2022-12-15T05:53:29.844Z,16.60
2022-12-15T05:55:02.090Z,16.17
2022-12-15T05:56:34.122Z,16.60
2022-12-15T05:58:06.190Z,17.23
2022-12-15T05:59:38.236Z,19.45
2022-12-15T06:01:13.841Z,23.20
2022-12-15T06:02:45.912Z,21.45
2022-12-15T06:04:18.078Z,25.85
2022-12-15T06:05:56.161Z,23.80
2022-12-15T06:07:28.567Z,25.13
2022-12-15T06:09:00.634Z,22.27
2022-12-15T06:10:32.657Z,23.65
2022-12-15T06:12:04.847Z,21.85
2022-12-15T06:13:36.948Z,15.50
2022-12-15T06:15:09.421Z,17.33
2022-12-15T06:16:50.042Z,15.25
2022-12-15T06:18:24.077Z,13.00
2022-12-15T06:19:56.165Z,13.80
2022-12-15T06:21:35.758Z,14.18
2022-12-15T06:23:07.875Z,13.05
2022-12-15T06:24:39.899Z,11.55
2022-12-15T06:26:34.632Z,13.32
2022-12-15T06:28:06.680Z,13.07
2022-12-15T06:29:38.687Z,12.27
2022-12-15T06:31:12.196Z,13.50
2022-12-15T06:35:48.242Z,11.73
2022-12-15T06:37:20.268Z,11.57
2022-12-15T06:38:52.743Z,13.82
2022-12-15T06:40:24.755Z,12.57
2022-12-15T06:41:56.748Z,11.88
2022-12-15T06:43:29.595Z,12.38
2022-12-15T06:45:01.920Z,12.00
2022-12-15T06:46:35.366Z,11.90
2022-12-15T06:48:07.523Z,12.45
2022-12-15T06:49:39.594Z,14.40
2022-12-15T06:51:16.812Z,13.57
2022-12-15T06:52:49.500Z,13.90
2022-12-15T06:54:21.688Z,13.82
2022-12-15T06:55:53.661Z,13.55
2022-12-15T06:57:25.627Z,14.70
2022-12-15T06:58:59.103Z,14.38
2022-12-15T07:00:34.697Z,13.73
2022-12-15T07:02:10.450Z,16.48
2022-12-15T07:03:44.843Z,14.38
2022-12-15T07:05:17.072Z,12.82
2022-12-15T07:06:49.450Z,14.40
2022-12-15T07:08:24.443Z,15.93
2022-12-15T07:10:00.734Z,16.83
2022-12-15T07:11:33.271Z,19.08
2022-12-15T07:13:05.182Z,15.20
2022-12-15T07:14:37.101Z,13.20
2022-12-15T07:16:10.380Z,14.00
2022-12-15T07:17:42.566Z,13.80
2022-12-15T07:19:14.780Z,13.85
2022-12-15T07:20:46.854Z,14.52
2022-12-15T07:22:22.769Z,14.73
2022-12-15T07:23:56.734Z,15.75
2022-12-15T07:25:29.926Z,15.70
2022-12-15T07:27:01.917Z,15.30
2022-12-15T07:28:34.916Z,17.08
2022-12-15T07:30:07.961Z,16.23
2022-12-15T07:31:40.622Z,15.73
2022-12-15T07:33:12.764Z,16.80
2022-12-15T07:34:44.830Z,18.02
2022-12-15T07:36:16.945Z,17.35
2022-12-15T07:37:48.970Z,17.10
2022-12-15T07:39:21.515Z,16.98
2022-12-15T07:40:53.791Z,16.60
2022-12-15T07:42:25.790Z,19.85
2022-12-15T07:43:58.692Z,18.73
2022-12-15T07:45:30.793Z,17.42
2022-12-15T07:47:02.811Z,17.23
2022-12-15T07:48:35.013Z,17.38
2022-12-15T07:50:08.230Z,16.40
2022-12-15T07:51:41.563Z,15.15
2022-12-15T07:53:13.608Z,17.52
2022-12-15T07:54:45.785Z,16.90
2022-12-15T07:56:21.104Z,21.05
2022-12-15T07:57:53.109Z,20.73
2022-12-15T07:59:25.176Z,21.42
2022-12-15T08:01:01.230Z,21.73
2022-12-15T08:02:33.397Z,20.58
2022-12-15T08:04:05.754Z,18.52
2022-12-15T08:05:38.076Z,16.42
2022-12-15T08:07:10.690Z,17.83
2022-12-15T08:08:44.594Z,16.58
2022-12-15T08:10:16.978Z,15.57
2022-12-15T08:11:49.019Z,15.80
2022-12-15T08:13:52.448Z,16.05
2022-12-15T08:15:13.147Z,15.77
2022-12-15T08:16:45.709Z,14.93
2022-12-15T08:18:17.853Z,14.37
2022-12-15T08:19:49.833Z,15.00
2022-12-15T08:21:21.836Z,19.10
2022-12-15T08:22:53.883Z,15.65
2022-12-15T08:24:25.942Z,15.52
2022-12-15T08:26:12.204Z,14.82
2022-12-15T08:27:47.362Z,17.55
2022-12-15T08:31:19.875Z,20.23
2022-12-15T08:32:57.819Z,18.77
2022-12-15T08:34:29.835Z,17.75
2022-12-15T08:36:04.874Z,15.60
2022-12-15T08:37:36.997Z,19.10
2022-12-15T08:39:09.050Z,16.80
2022-12-15T08:40:41.006Z,14.68
2022-12-15T08:42:13.065Z,16.13
2022-12-15T08:43:48.552Z,13.20
2022-12-15T08:45:21.148Z,12.55
2022-12-15T08:46:53.191Z,11.38
2022-12-15T08:48:25.236Z,14.35
2022-12-15T08:49:57.253Z,12.85
2022-12-15T08:51:31.327Z,15.82
2022-12-15T08:53:29.527Z,13.60
2022-12-15T08:54:55.767Z,12.23
2022-12-15T08:56:28.224Z,12.60
2022-12-15T08:58:00.313Z,13.95
2022-12-15T08:59:32.399Z,13.35
2022-12-15T09:01:06.603Z,20.63
2022-12-15T09:04:12.630Z,14.32
2022-12-15T09:05:44.729Z,22.98
2022-12-15T09:07:16.685Z,14.75
2022-12-15T09:08:50.216Z,17.27
2022-12-15T09:10:23.877Z,21.05
2022-12-15T09:11:55.856Z,21.80
2022-12-15T09:13:29.225Z,16.02
2022-12-15T09:15:01.612Z,14.32
2022-12-15T09:16:33.773Z,14.10
2022-12-15T09:18:06.026Z,13.45
2022-12-15T09:19:38.162Z,13.48
2022-12-15T09:21:11.552Z,14.32
2022-12-15T09:22:43.563Z,13.70
2022-12-15T09:24:23.192Z,13.75
2022-12-15T09:26:02.329Z,14.63
2022-12-15T09:27:35.547Z,12.82
2022-12-15T09:29:07.486Z,11.40
2022-12-15T09:30:39.582Z,12.32
2022-12-15T09:32:14.308Z,12.82
2022-12-15T09:33:46.682Z,13.25
2022-12-15T09:35:18.739Z,13.30
2022-12-15T09:36:50.801Z,10.98
2022-12-15T09:40:01.830Z,11.55
2022-12-15T09:41:35.497Z,11.65
2022-12-15T09:43:33.359Z,12.65
2022-12-15T09:45:14.421Z,11.80
2022-12-15T09:47:12.381Z,12.07
2022-12-15T09:48:45.899Z,11.50
2022-12-15T09:50:24.007Z,12.15
2022-12-15T09:52:08.990Z,10.95
2022-12-15T09:53:59.164Z,11.68
2022-12-15T09:55:35.694Z,12.38
2022-12-15T09:57:26.871Z,10.20
2022-12-15T09:59:10.270Z,9.93
2022-12-15T10:00:59.718Z,9.13
2022-12-15T10:02:38.331Z,11.07
2022-12-15T10:04:16.043Z,11.77
2022-12-15T10:06:18.226Z,15.80
2022-12-15T10:07:52.067Z,10.73
2022-12-15T10:09:28.733Z,12.73
2022-12-15T10:11:05.926Z,10.23
2022-12-15T10:12:45.504Z,12.13
2022-12-15T10:14:28.877Z,11.68
2022-12-15T10:16:08.090Z,11.52
2022-12-15T10:17:50.312Z,11.35
2022-12-15T10:21:38.719Z,9.55
2022-12-15T10:23:17.501Z,10.15
2022-12-15T10:26:43.161Z,9.38
2022-12-15T10:30:09.496Z,8.77
2022-12-15T10:31:58.384Z,10.40
2022-12-15T10:33:38.751Z,11.65
2022-12-15T10:35:16.968Z,9.23
2022-12-15T10:36:51.732Z,10.07
2022-12-15T10:38:27.538Z,11.02
2022-12-15T10:39:59.615Z,10.35
2022-12-15T10:41:34.129Z,12.05
2022-12-15T10:43:14.158Z,10.30
2022-12-15T10:44:50.308Z,10.02
2022-12-15T10:46:28.017Z,10.23
2022-12-15T10:48:02.745Z,11.30
2022-12-15T10:49:34.709Z,10.57
2022-12-15T10:51:32.016Z,10.00
2022-12-15T10:53:09.685Z,12.25
2022-12-15T10:54:45.763Z,11.68
2022-12-15T10:56:28.752Z,10.98
2022-12-15T10:58:05.596Z,10.50
2022-12-15T10:59:39.011Z,10.48
2022-12-15T11:01:18.306Z,12.45
2022-12-15T11:02:50.641Z,10.70
2022-12-15T11:04:33.222Z,11.00
2022-12-15T11:06:14.928Z,9.98
2022-12-15T11:07:55.201Z,10.07
2022-12-15T11:09:36.607Z,9.43
2022-12-15T11:11:57.731Z,11.50
2022-12-15T11:13:33.187Z,12.40
2022-12-15T11:15:25.623Z,13.52
2022-12-15T11:16:59.278Z,13.00
2022-12-15T11:20:11.531Z,13.65
2022-12-15T11:21:46.702Z,10.90
2022-12-15T11:23:46.610Z,11.32
2022-12-15T11:25:42.720Z,11.25
2022-12-15T11:27:27.684Z,9.48
2022-12-15T11:29:03.099Z,10.85
2022-12-15T11:30:39.505Z,10.65
2022-12-15T11:32:13.185Z,10.90
2022-12-15T11:33:45.262Z,10.25
2022-12-15T11:35:44.895Z,11.23
2022-12-15T11:37:41.897Z,10.52
2022-12-15T11:39:23.275Z,11.80
2022-12-15T11:40:57.036Z,11.23
2022-12-15T11:42:48.826Z,11.07
2022-12-15T11:44:45.293Z,11.10
2022-12-15T11:46:24.179Z,11.18
2022-12-15T11:48:08.406Z,10.60
2022-12-15T11:49:52.431Z,10.82
2022-12-15T11:51:29.806Z,9.40
2022-12-15T11:53:12.994Z,9.63
2022-12-15T11:54:55.817Z,9.77
2022-12-15T11:56:34.825Z,10.48
2022-12-15T11:58:12.740Z,10.88
2022-12-15T12:00:19.634Z,12.02
2022-12-15T12:02:19.723Z,11.35
2022-12-15T12:04:21.299Z,11.73
2022-12-15T12:06:08.737Z,13.18
2022-12-15T12:07:53.309Z,10.68
2022-12-15T12:09:35.545Z,12.10
2022-12-15T12:11:23.716Z,12.52
2022-12-15T12:13:04.759Z,12.30
2022-12-15T12:14:50.411Z,11.60
2022-12-15T12:16:44.559Z,10.85
2022-12-15T12:18:26.721Z,11.50
2022-12-15T12:20:03.861Z,11.85
2022-12-15T12:21:51.260Z,11.70
2022-12-15T12:23:29.490Z,12.13
2022-12-15T12:25:06.517Z,13.55
2022-12-15T12:26:42.470Z,13.38
2022-12-15T12:28:21.752Z,13.88
2022-12-15T12:30:18.457Z,11.93
2022-12-15T12:32:14.530Z,12.20
2022-12-15T12:33:49.921Z,11.10
2022-12-15T12:35:39.830Z,11.40
2022-12-15T12:37:42.219Z,10.88
2022-12-15T12:39:20.718Z,11.63
2022-12-15T12:40:52.990Z,11.38
2022-12-15T12:42:34.121Z,12.13
2022-12-15T12:44:22.742Z,12.02
2022-12-15T12:46:01.363Z,11.80
2022-12-15T12:47:36.856Z,12.18
2022-12-15T12:49:21.353Z,12.30
2022-12-15T12:51:14.509Z,11.13
2022-12-15T12:52:55.028Z,12.55
2022-12-15T12:56:30.815Z,12.27
2022-12-15T12:58:03.026Z,11.57
2022-12-15T12:59:38.573Z,12.77
2022-12-15T13:01:31.331Z,13.65
2022-12-15T13:03:23.728Z,12.27
2022-12-15T13:04:58.271Z,14.27
2022-12-15T13:06:36.359Z,13.20
2022-12-15T13:08:09.087Z,13.13
2022-12-15T13:12:15.097Z,13.75
2022-12-15T13:13:53.933Z,14.60
2022-12-15T13:15:29.208Z,15.43
2022-12-15T13:19:07.969Z,15.23
2022-12-15T13:20:40.676Z,13.85
2022-12-15T13:22:32.616Z,15.73
2022-12-15T13:24:04.772Z,15.52
2022-12-15T13:25:38.316Z,15.55
2022-12-15T13:28:45.554Z,15.52
2022-12-15T13:30:18.362Z,18.40
2022-12-15T13:31:51.264Z,16.58
2022-12-15T13:33:24.120Z,18.52
2022-12-15T13:34:56.579Z,17.77
2022-12-15T13:36:37.717Z,16.33
2022-12-15T13:38:18.102Z,16.73
2022-12-15T13:41:25.386Z,15.98
2022-12-15T13:42:59.340Z,17.15
2022-12-15T13:44:36.476Z,15.07
2022-12-15T13:46:16.832Z,15.98
2022-12-15T13:47:52.572Z,16.15
2022-12-15T13:49:53.266Z,18.05
2022-12-15T13:51:38.723Z,14.73
2022-12-15T13:53:19.724Z,15.75
2022-12-15T13:54:56.929Z,16.05
2022-12-15T13:56:40.898Z,16.10
2022-12-15T13:58:17.681Z,16.98
2022-12-15T13:59:58.069Z,17.45
2022-12-15T14:03:24.663Z,16.75
2022-12-15T14:05:26.069Z,15.85
2022-12-15T14:07:01.498Z,15.10
2022-12-15T14:08:33.564Z,17.02
2022-12-15T14:10:08.819Z,16.63
2022-12-15T14:11:58.080Z,15.63
2022-12-15T14:13:32.197Z,17.33
2022-12-15T14:15:04.913Z,16.48
2022-12-15T14:16:36.952Z,16.35
2022-12-15T14:18:29.085Z,16.50
2022-12-15T14:20:12.438Z,17.08
2022-12-15T14:21:58.890Z,17.80
2022-12-15T14:23:41.538Z,16.10
2022-12-15T14:25:22.881Z,17.88
2022-12-15T14:26:55.050Z,18.83
2022-12-15T14:28:33.960Z,18.52
2022-12-15T14:30:13.995Z,17.52
2022-12-15T14:31:51.101Z,18.38
2022-12-15T14:33:28.097Z,17.75
2022-12-15T14:35:01.968Z,17.45
2022-12-15T14:36:34.638Z,18.70
2022-12-15T14:38:08.945Z,18.07
2022-12-15T14:39:50.131Z,18.70
2022-12-15T14:41:31.678Z,19.63
2022-12-15T14:43:05.192Z,21.38
2022-12-15T14:44:48.078Z,20.13
2022-12-15T14:46:26.216Z,20.08
2022-12-15T14:48:39.383Z,20.23
2022-12-15T14:50:01.486Z,20.90
2022-12-15T14:51:42.873Z,20.98
2022-12-15T14:53:17.880Z,22.73
2022-12-15T14:55:01.239Z,20.70
2022-12-15T14:56:33.282Z,22.83
2022-12-15T14:58:41.134Z,22.77
2022-12-15T15:00:37.097Z,21.23
2022-12-15T15:02:20.251Z,21.60
2022-12-15T15:03:04.321Z,10.82
2022-12-15T15:03:11.858Z,16.27
2022-12-15T15:04:00.030Z,21.27
2022-12-15T15:05:33.427Z,23.33
2022-12-15T15:07:08.347Z,21.83
2022-12-15T15:10:24.406Z,25.67
2022-12-15T15:12:05.249Z,22.90
2022-12-15T15:13:40.310Z,21.77
2022-12-15T15:15:19.536Z,20.13
2022-12-15T15:17:07.235Z,18.98
2022-12-15T15:18:39.358Z,19.08
2022-12-15T15:20:27.179Z,17.77
2022-12-15T15:22:02.297Z,20.30
2022-12-15T15:23:34.615Z,21.20
2022-12-15T15:25:25.656Z,20.40
2022-12-15T15:27:24.954Z,22.30
2022-12-15T15:28:57.387Z,22.15
2022-12-15T15:30:30.697Z,22.55
2022-12-15T15:32:17.522Z,23.10
2022-12-15T15:33:49.595Z,19.98
2022-12-15T15:35:23.070Z,20.45
2022-12-15T15:36:55.256Z,22.55
2022-12-15T15:38:40.143Z,24.65
2022-12-15T15:40:14.781Z,38.20
2022-12-15T15:41:46.728Z,32.30
2022-12-15T15:43:19.774Z,29.60
2022-12-15T15:44:51.887Z,25.52
2022-12-15T15:46:26.460Z,25.77
2022-12-15T15:48:01.553Z,29.90
2022-12-15T15:49:37.910Z,30.10
2022-12-15T15:51:11.790Z,30.48
2022-12-15T15:52:44.316Z,26.02
2022-12-15T15:54:22.998Z,23.95
2022-12-15T15:55:56.271Z,23.52
2022-12-15T15:57:28.349Z,24.50
2022-12-15T15:59:10.014Z,25.05
2022-12-15T16:00:42.205Z,23.60
2022-12-15T16:02:14.893Z,24.33
2022-12-15T16:03:47.146Z,22.30
2022-12-15T16:05:21.315Z,22.67
2022-12-15T16:06:53.847Z,23.80
2022-12-15T16:08:29.106Z,23.27
2022-12-15T16:10:01.594Z,25.35
2022-12-15T16:11:34.843Z,38.08
2022-12-15T16:13:10.182Z,31.80
2022-12-15T16:14:42.188Z,28.00
2022-12-15T16:16:19.389Z,21.38
2022-12-15T16:17:52.383Z,22.05
2022-12-15T16:19:27.997Z,21.83
2022-12-15T16:21:00.036Z,24.40
2022-12-15T16:22:33.935Z,24.65
2022-12-15T16:24:11.719Z,25.00
2022-12-15T16:25:50.607Z,22.70
2022-12-15T16:27:23.269Z,22.67
2022-12-15T16:28:55.849Z,21.85
2022-12-15T16:30:28.917Z,21.70
2022-12-15T16:32:01.027Z,22.38
2022-12-15T16:33:33.105Z,21.55
2022-12-15T16:35:05.505Z,21.90
2022-12-15T16:36:37.643Z,21.33
2022-12-15T16:38:38.556Z,20.92
2022-12-15T16:40:16.088Z,19.17
2022-12-15T16:41:48.143Z,19.52
2022-12-15T16:43:22.219Z,19.25
2022-12-15T16:44:57.009Z,20.95
2022-12-15T16:46:29.079Z,24.67
2022-12-15T16:48:01.376Z,22.00
2022-12-15T16:49:39.767Z,23.70
2022-12-15T16:51:31.811Z,22.08
2022-12-15T16:53:04.807Z,24.08
2022-12-15T16:54:36.804Z,21.65
2022-12-15T16:56:13.385Z,26.90
2022-12-15T16:57:45.871Z,25.05
2022-12-15T16:59:36.430Z,22.85
2022-12-15T17:01:10.882Z,23.15
2022-12-15T17:02:44.383Z,23.83
2022-12-15T17:05:50.888Z,22.45
2022-12-15T17:07:24.511Z,22.13
2022-12-15T17:10:30.322Z,20.38
2022-12-15T17:12:02.571Z,20.23
2022-12-15T17:13:45.339Z,25.05
2022-12-15T17:15:23.670Z,30.48
2022-12-15T17:16:56.028Z,20.80
2022-12-15T17:18:28.514Z,23.05
2022-12-15T17:21:54.074Z,21.00
2022-12-15T17:23:26.247Z,16.88
2022-12-15T17:24:58.244Z,22.08
2022-12-15T17:26:32.229Z,22.23
2022-12-15T17:28:06.866Z,27.75
2022-12-15T17:29:39.644Z,18.90
2022-12-15T17:31:22.824Z,19.95
2022-12-15T17:32:54.939Z,18.23
2022-12-15T17:34:31.624Z,17.17
2022-12-15T17:36:07.281Z,23.73
2022-12-15T17:37:40.079Z,28.85
2022-12-15T17:39:12.274Z,27.50
2022-12-15T17:40:45.323Z,25.02
2022-12-15T17:42:21.304Z,25.17
2022-12-15T17:44:09.743Z,22.23
2022-12-15T17:48:52.020Z,25.13
2022-12-15T17:50:25.382Z,30.17
2022-12-15T17:51:58.158Z,25.63
2022-12-15T17:53:31.007Z,26.52
2022-12-15T17:55:08.407Z,34.90
2022-12-15T17:56:42.472Z,27.02
2022-12-15T17:58:25.932Z,25.02
2022-12-15T17:59:59.096Z,21.98
2022-12-15T18:01:31.311Z,24.85
2022-12-15T18:03:03.682Z,24.25
2022-12-15T18:04:36.153Z,25.48
2022-12-15T18:06:14.989Z,27.48
2022-12-15T18:07:50.819Z,27.23
2022-12-15T18:09:23.222Z,25.83
2022-12-15T18:10:57.600Z,25.20
2022-12-15T18:12:30.014Z,24.48
2022-12-15T18:14:02.076Z,23.17
2022-12-15T18:15:34.109Z,24.10
2022-12-15T18:17:06.124Z,23.05
2022-12-15T18:18:38.406Z,21.30
2022-12-15T18:20:10.887Z,22.67
2022-12-15T18:21:42.999Z,23.23
2022-12-15T18:23:20.710Z,24.17
2022-12-15T18:24:54.081Z,25.02
2022-12-15T18:26:26.057Z,22.13
2022-12-15T18:27:58.943Z,20.17
2022-12-15T18:29:30.979Z,16.45
2022-12-15T18:31:26.779Z,16.65
2022-12-15T18:32:59.534Z,18.42
2022-12-15T18:34:31.600Z,25.58
2022-12-15T18:36:03.950Z,18.35
2022-12-15T18:37:36.305Z,17.83
2022-12-15T18:39:19.904Z,18.58
2022-12-15T18:40:53.997Z,18.65
2022-12-15T18:42:26.080Z,20.70
2022-12-15T18:43:59.210Z,18.98
2022-12-15T18:45:31.326Z,18.92
2022-12-15T18:47:03.511Z,19.10
2022-12-15T18:48:38.116Z,17.65
2022-12-15T18:50:24.652Z,18.30
2022-12-15T18:51:56.643Z,16.80
2022-12-15T18:53:35.166Z,17.88
2022-12-15T18:55:16.942Z,19.92
2022-12-15T18:56:49.131Z,18.85
2022-12-15T18:58:24.881Z,18.50
2022-12-15T19:00:16.035Z,16.40
2022-12-15T19:01:49.417Z,17.08
2022-12-15T19:04:53.965Z,15.77
2022-12-15T19:06:35.231Z,18.08
2022-12-15T19:08:13.564Z,15.55
2022-12-15T19:09:45.633Z,15.35
2022-12-15T19:11:25.579Z,13.60
2022-12-15T19:12:58.828Z,10.93
2022-12-15T19:14:43.369Z,8.10
2022-12-15T19:16:20.223Z,8.98
2022-12-15T19:18:10.636Z,8.70
2022-12-15T19:21:49.333Z,8.55
2022-12-15T19:23:21.838Z,9.30
2022-12-15T19:24:56.794Z,10.15
2022-12-15T19:26:28.973Z,11.40
2022-12-15T19:28:01.299Z,10.68
2022-12-15T19:29:33.265Z,11.93
2022-12-15T19:31:05.456Z,10.82
2022-12-15T19:32:37.553Z,11.75
2022-12-15T19:34:10.344Z,12.05
2022-12-15T19:35:44.604Z,11.52
2022-12-15T19:37:24.823Z,11.48
2022-12-15T19:38:56.908Z,13.30
2022-12-15T19:40:30.993Z,13.60
2022-12-15T19:42:06.552Z,12.10
2022-12-15T19:43:42.752Z,13.80
2022-12-15T19:45:20.566Z,13.10
2022-12-15T19:46:52.815Z,14.35
2022-12-15T19:48:24.814Z,14.63
2022-12-15T19:51:38.269Z,15.65
2022-12-15T19:53:26.288Z,14.77
2022-12-15T19:54:58.344Z,13.93
2022-12-15T19:56:30.512Z,15.80
2022-12-15T19:58:27.102Z,15.35
2022-12-15T19:59:59.972Z,14.45
2022-12-15T20:01:32.061Z,15.82
2022-12-15T20:03:04.405Z,18.17
2022-12-15T20:04:36.433Z,18.77
2022-12-15T20:06:23.979Z,17.70
2022-12-15T20:07:56.120Z,18.88
2022-12-15T20:09:28.260Z,16.15
2022-12-15T20:11:00.961Z,15.82
2022-12-15T20:12:32.954Z,14.65
2022-12-15T20:14:12.925Z,14.85
2022-12-15T20:15:45.798Z,16.42
2022-12-15T20:17:17.842Z,15.75
2022-12-15T20:18:55.059Z,16.77
2022-12-15T20:20:28.833Z,20.52
2022-12-15T20:22:02.357Z,19.27
2022-12-15T20:25:23.840Z,28.30
2022-12-15T20:26:55.890Z,25.45
2022-12-15T20:28:29.972Z,26.52
2022-12-15T20:30:01.904Z,31.02
2022-12-15T20:31:34.384Z,25.90
2022-12-15T20:33:06.475Z,21.15
2022-12-15T20:34:38.445Z,22.10
2022-12-15T20:36:17.780Z,23.90
2022-12-15T20:37:50.290Z,26.70
2022-12-15T20:39:28.036Z,34.15
2022-12-15T20:41:01.464Z,23.45
2022-12-15T20:42:33.467Z,21.95
2022-12-15T20:44:06.016Z,22.90
2022-12-15T20:45:38.043Z,22.33
2022-12-15T20:47:28.125Z,23.83
2022-12-15T20:49:00.189Z,20.33
2022-12-15T20:50:37.820Z,23.05
2022-12-15T20:52:19.277Z,23.02
2022-12-15T20:53:52.470Z,19.75
2022-12-15T20:55:24.858Z,21.35
2022-12-15T20:56:56.901Z,22.05
2022-12-15T20:58:33.373Z,20.30
2022-12-15T21:00:06.616Z,19.92
2022-12-15T21:01:39.751Z,20.77
2022-12-15T21:03:26.263Z,20.00
2022-12-15T21:04:58.302Z,19.95
2022-12-15T21:06:30.895Z,30.98
2022-12-15T21:08:10.402Z,21.75
2022-12-15T21:09:42.483Z,23.75
2022-12-15T21:11:23.028Z,21.30
2022-12-15T21:12:55.552Z,24.42
2022-12-15T21:14:27.713Z,28.38
2022-12-15T21:15:59.715Z,25.75
2022-12-15T21:17:31.681Z,25.63
2022-12-15T21:19:19.877Z,25.33
2022-12-15T21:20:55.621Z,28.45
2022-12-15T21:22:28.302Z,28.48
2022-12-15T21:24:02.054Z,24.53
2022-12-15T21:25:34.856Z,20.98
2022-12-15T21:27:09.676Z,20.65
2022-12-15T21:28:41.693Z,17.48
2022-12-15T21:30:21.985Z,16.77
2022-12-15T21:31:54.049Z,17.35
2022-12-15T21:33:26.128Z,19.48
2022-12-15T21:34:58.110Z,22.85
2022-12-15T21:36:30.202Z,20.15
2022-12-15T21:38:02.245Z,24.92
2022-12-15T21:39:36.382Z,23.50
2022-12-15T21:41:13.288Z,25.13
2022-12-15T21:42:45.316Z,28.17
2022-12-15T21:44:18.679Z,22.70
2022-12-15T21:45:50.728Z,19.67
2022-12-15T21:47:47.993Z,18.48
2022-12-15T21:49:20.788Z,16.90
2022-12-15T21:50:52.874Z,17.77
2022-12-15T21:52:26.187Z,18.70
2022-12-15T21:53:58.386Z,19.05
2022-12-15T21:55:30.992Z,19.10
2022-12-15T21:57:03.125Z,17.20
2022-12-15T21:58:35.441Z,17.52
2022-12-15T22:00:16.543Z,18.42